sensor_id;sensor_type;location;lat;lon;timestamp;P1;durP1;ratioP1;P2;durP2;ratioP2
7845;SDS011;3968;51.424;6.788;2022-11-20T00:00:51;30.87;;;18.80;;
7845;SDS011;3968;51.424;6.788;2022-11-20T00:03:16;25.83;;;18.40;;
7845;SDS011;3968;51.424;6.788;2022-11-20T00:05:42;24.93;;;18.70;;
7845;SDS011;3968;51.424;6.788;2022-11-20T00:08:08;25.47;;;17.57;;
7845;SDS011;3968;51.424;6.788;2022-11-20T00:10:38;26.57;;;18.13;;
7845;SDS011;3968;51.424;6.788;2022-11-20T00:13:04;25.03;;;17.57;;
7845;SDS011;3968;51.424;6.788;2022-11-20T00:15:30;24.77;;;17.60;;
7845;SDS011;3968;51.424;6.788;2022-11-20T00:20:21;26.93;;;18.80;;
7845;SDS011;3968;51.424;6.788;2022-11-20T00:22:47;24.03;;;17.77;;
7845;SDS011;3968;51.424;6.788;2022-11-20T00:25:12;25.40;;;17.53;;
7845;SDS011;3968;51.424;6.788;2022-11-20T00:27:40;23.57;;;17.37;;
7845;SDS011;3968;51.424;6.788;2022-11-20T00:30:06;26.97;;;18.50;;
7845;SDS011;3968;51.424;6.788;2022-11-20T00:32:32;22.63;;;16.93;;
7845;SDS011;3968;51.424;6.788;2022-11-20T00:34:58;23.83;;;17.57;;
7845;SDS011;3968;51.424;6.788;2022-11-20T00:37:23;23.00;;;17.23;;
7845;SDS011;3968;51.424;6.788;2022-11-20T00:39:49;24.67;;;17.87;;
7845;SDS011;3968;51.424;6.788;2022-11-20T00:42:15;24.03;;;18.33;;
7845;SDS011;3968;51.424;6.788;2022-11-20T00:44:40;23.90;;;18.03;;
7845;SDS011;3968;51.424;6.788;2022-11-20T00:47:06;25.43;;;18.67;;
7845;SDS011;3968;51.424;6.788;2022-11-20T00:49:31;23.90;;;17.53;;
7845;SDS011;3968;51.424;6.788;2022-11-20T00:51:57;28.20;;;16.90;;
7845;SDS011;3968;51.424;6.788;2022-11-20T00:54:23;25.37;;;17.40;;
7845;SDS011;3968;51.424;6.788;2022-11-20T00:56:49;25.97;;;17.83;;
7845;SDS011;3968;51.424;6.788;2022-11-20T00:59:14;25.80;;;18.90;;
7845;SDS011;3968;51.424;6.788;2022-11-20T01:01:40;26.20;;;18.40;;
7845;SDS011;3968;51.424;6.788;2022-11-20T01:04:05;25.40;;;18.57;;
7845;SDS011;3968;51.424;6.788;2022-11-20T01:06:32;28.07;;;18.70;;
7845;SDS011;3968;51.424;6.788;2022-11-20T01:09:00;26.47;;;17.87;;
7845;SDS011;3968;51.424;6.788;2022-11-20T01:11:30;25.80;;;18.27;;
7845;SDS011;3968;51.424;6.788;2022-11-20T01:14:00;28.23;;;20.07;;
7845;SDS011;3968;51.424;6.788;2022-11-20T01:16:30;26.67;;;18.63;;
7845;SDS011;3968;51.424;6.788;2022-11-20T01:19:01;24.13;;;17.80;;
7845;SDS011;3968;51.424;6.788;2022-11-20T01:21:29;26.33;;;18.40;;
7845;SDS011;3968;51.424;6.788;2022-11-20T01:24:00;28.67;;;19.03;;
7845;SDS011;3968;51.424;6.788;2022-11-20T01:26:27;25.57;;;17.93;;
7845;SDS011;3968;51.424;6.788;2022-11-20T01:28:55;27.70;;;18.63;;
7845;SDS011;3968;51.424;6.788;2022-11-20T01:33:50;28.60;;;18.20;;
7845;SDS011;3968;51.424;6.788;2022-11-20T01:36:18;30.27;;;19.47;;
7845;SDS011;3968;51.424;6.788;2022-11-20T01:38:45;28.87;;;19.83;;
7845;SDS011;3968;51.424;6.788;2022-11-20T01:41:11;27.20;;;18.87;;
7845;SDS011;3968;51.424;6.788;2022-11-20T01:43:59;27.00;;;19.13;;
7845;SDS011;3968;51.424;6.788;2022-11-20T01:46:25;26.63;;;18.37;;
7845;SDS011;3968;51.424;6.788;2022-11-20T01:51:39;29.93;;;19.30;;
7845;SDS011;3968;51.424;6.788;2022-11-20T01:54:12;26.77;;;18.83;;
7845;SDS011;3968;51.424;6.788;2022-11-20T01:56:59;25.63;;;18.93;;
7845;SDS011;3968;51.424;6.788;2022-11-20T01:59:25;27.07;;;19.33;;
7845;SDS011;3968;51.424;6.788;2022-11-20T02:01:54;27.23;;;18.87;;
7845;SDS011;3968;51.424;6.788;2022-11-20T02:04:20;22.90;;;17.87;;
7845;SDS011;3968;51.424;6.788;2022-11-20T02:06:50;24.57;;;19.07;;
7845;SDS011;3968;51.424;6.788;2022-11-20T02:09:24;26.83;;;18.80;;
7845;SDS011;3968;51.424;6.788;2022-11-20T02:11:51;26.53;;;19.23;;
7845;SDS011;3968;51.424;6.788;2022-11-20T02:14:17;24.93;;;18.13;;
7845;SDS011;3968;51.424;6.788;2022-11-20T02:16:46;25.90;;;18.87;;
7845;SDS011;3968;51.424;6.788;2022-11-20T02:19:23;27.37;;;18.97;;
7845;SDS011;3968;51.424;6.788;2022-11-20T02:22:12;25.70;;;18.37;;
7845;SDS011;3968;51.424;6.788;2022-11-20T02:24:47;26.67;;;18.43;;
7845;SDS011;3968;51.424;6.788;2022-11-20T02:27:14;24.13;;;18.23;;
7845;SDS011;3968;51.424;6.788;2022-11-20T02:29:42;25.30;;;18.63;;
7845;SDS011;3968;51.424;6.788;2022-11-20T02:32:19;24.50;;;17.90;;
7845;SDS011;3968;51.424;6.788;2022-11-20T02:34:58;28.70;;;18.47;;
7845;SDS011;3968;51.424;6.788;2022-11-20T02:37:35;25.17;;;18.10;;
7845;SDS011;3968;51.424;6.788;2022-11-20T02:40:03;25.10;;;19.23;;
7845;SDS011;3968;51.424;6.788;2022-11-20T02:42:29;27.80;;;18.20;;
7845;SDS011;3968;51.424;6.788;2022-11-20T02:44:55;25.80;;;18.60;;
7845;SDS011;3968;51.424;6.788;2022-11-20T02:47:21;29.00;;;19.17;;
7845;SDS011;3968;51.424;6.788;2022-11-20T02:49:46;26.70;;;17.97;;
7845;SDS011;3968;51.424;6.788;2022-11-20T02:52:12;24.90;;;17.90;;
7845;SDS011;3968;51.424;6.788;2022-11-20T02:54:37;26.97;;;18.03;;
7845;SDS011;3968;51.424;6.788;2022-11-20T02:57:03;28.57;;;18.83;;
7845;SDS011;3968;51.424;6.788;2022-11-20T02:59:28;29.07;;;19.53;;
7845;SDS011;3968;51.424;6.788;2022-11-20T03:01:54;24.33;;;17.70;;
7845;SDS011;3968;51.424;6.788;2022-11-20T03:04:20;26.47;;;18.87;;
7845;SDS011;3968;51.424;6.788;2022-11-20T03:06:45;25.23;;;17.90;;
7845;SDS011;3968;51.424;6.788;2022-11-20T03:09:11;28.67;;;19.53;;
7845;SDS011;3968;51.424;6.788;2022-11-20T03:11:37;27.40;;;19.57;;
7845;SDS011;3968;51.424;6.788;2022-11-20T03:14:03;26.27;;;19.30;;
7845;SDS011;3968;51.424;6.788;2022-11-20T03:16:30;24.73;;;17.50;;
7845;SDS011;3968;51.424;6.788;2022-11-20T03:18:56;26.67;;;18.43;;
7845;SDS011;3968;51.424;6.788;2022-11-20T03:21:22;24.63;;;18.27;;
7845;SDS011;3968;51.424;6.788;2022-11-20T03:23:47;26.70;;;17.67;;
7845;SDS011;3968;51.424;6.788;2022-11-20T03:28:48;22.20;;;17.53;;
7845;SDS011;3968;51.424;6.788;2022-11-20T03:31:15;25.90;;;17.53;;
7845;SDS011;3968;51.424;6.788;2022-11-20T03:33:43;23.83;;;18.00;;
7845;SDS011;3968;51.424;6.788;2022-11-20T03:36:10;23.87;;;18.17;;
7845;SDS011;3968;51.424;6.788;2022-11-20T03:38:37;23.97;;;17.13;;
7845;SDS011;3968;51.424;6.788;2022-11-20T03:41:25;24.80;;;18.23;;
7845;SDS011;3968;51.424;6.788;2022-11-20T03:43:55;23.40;;;18.03;;
7845;SDS011;3968;51.424;6.788;2022-11-20T03:46:22;25.27;;;18.07;;
7845;SDS011;3968;51.424;6.788;2022-11-20T03:48:48;25.70;;;19.13;;
7845;SDS011;3968;51.424;6.788;2022-11-20T03:51:15;25.00;;;17.57;;
7845;SDS011;3968;51.424;6.788;2022-11-20T03:53:43;26.37;;;18.27;;
7845;SDS011;3968;51.424;6.788;2022-11-20T03:56:10;27.03;;;19.07;;
7845;SDS011;3968;51.424;6.788;2022-11-20T03:58:37;26.37;;;17.93;;
7845;SDS011;3968;51.424;6.788;2022-11-20T04:01:07;25.43;;;19.37;;
7845;SDS011;3968;51.424;6.788;2022-11-20T04:03:38;26.27;;;18.37;;
7845;SDS011;3968;51.424;6.788;2022-11-20T04:06:12;29.37;;;19.70;;
7845;SDS011;3968;51.424;6.788;2022-11-20T04:08:42;27.97;;;18.77;;
7845;SDS011;3968;51.424;6.788;2022-11-20T04:13:38;26.50;;;19.20;;
7845;SDS011;3968;51.424;6.788;2022-11-20T04:16:07;26.50;;;19.10;;
7845;SDS011;3968;51.424;6.788;2022-11-20T04:18:34;27.57;;;19.27;;
7845;SDS011;3968;51.424;6.788;2022-11-20T04:21:00;26.33;;;20.20;;
7845;SDS011;3968;51.424;6.788;2022-11-20T04:23:27;29.10;;;21.17;;
7845;SDS011;3968;51.424;6.788;2022-11-20T04:25:53;26.10;;;19.47;;
7845;SDS011;3968;51.424;6.788;2022-11-20T04:28:18;28.13;;;20.00;;
7845;SDS011;3968;51.424;6.788;2022-11-20T04:30:44;22.70;;;17.27;;
7845;SDS011;3968;51.424;6.788;2022-11-20T04:33:10;25.60;;;19.27;;
7845;SDS011;3968;51.424;6.788;2022-11-20T04:35:36;25.90;;;19.47;;
7845;SDS011;3968;51.424;6.788;2022-11-20T04:38:03;28.37;;;18.83;;
7845;SDS011;3968;51.424;6.788;2022-11-20T04:40:29;25.73;;;18.13;;
7845;SDS011;3968;51.424;6.788;2022-11-20T04:42:55;23.93;;;18.27;;
7845;SDS011;3968;51.424;6.788;2022-11-20T04:45:21;24.73;;;18.20;;
7845;SDS011;3968;51.424;6.788;2022-11-20T04:47:48;25.43;;;19.10;;
7845;SDS011;3968;51.424;6.788;2022-11-20T04:50:13;24.87;;;19.13;;
7845;SDS011;3968;51.424;6.788;2022-11-20T04:52:39;25.67;;;19.00;;
7845;SDS011;3968;51.424;6.788;2022-11-20T04:55:05;29.40;;;19.20;;
7845;SDS011;3968;51.424;6.788;2022-11-20T04:57:31;28.20;;;19.30;;
7845;SDS011;3968;51.424;6.788;2022-11-20T04:59:56;25.60;;;19.00;;
7845;SDS011;3968;51.424;6.788;2022-11-20T05:02:22;26.40;;;18.93;;
7845;SDS011;3968;51.424;6.788;2022-11-20T05:04:48;25.00;;;18.37;;
7845;SDS011;3968;51.424;6.788;2022-11-20T05:07:13;24.00;;;17.67;;
7845;SDS011;3968;51.424;6.788;2022-11-20T05:09:39;27.30;;;19.70;;
7845;SDS011;3968;51.424;6.788;2022-11-20T05:12:06;25.17;;;19.47;;
7845;SDS011;3968;51.424;6.788;2022-11-20T05:14:32;26.90;;;19.93;;
7845;SDS011;3968;51.424;6.788;2022-11-20T05:16:58;29.90;;;19.93;;
7845;SDS011;3968;51.424;6.788;2022-11-20T05:19:24;25.97;;;19.43;;
7845;SDS011;3968;51.424;6.788;2022-11-20T05:21:50;28.70;;;20.33;;
7845;SDS011;3968;51.424;6.788;2022-11-20T05:24:15;27.37;;;20.60;;
7845;SDS011;3968;51.424;6.788;2022-11-20T05:26:41;30.27;;;21.17;;
7845;SDS011;3968;51.424;6.788;2022-11-20T05:29:09;24.07;;;19.30;;
7845;SDS011;3968;51.424;6.788;2022-11-20T05:31:35;29.93;;;19.93;;
7845;SDS011;3968;51.424;6.788;2022-11-20T05:34:02;28.53;;;21.27;;
7845;SDS011;3968;51.424;6.788;2022-11-20T05:36:27;28.50;;;22.20;;
7845;SDS011;3968;51.424;6.788;2022-11-20T05:38:54;29.10;;;22.93;;
7845;SDS011;3968;51.424;6.788;2022-11-20T05:41:20;28.90;;;22.47;;
7845;SDS011;3968;51.424;6.788;2022-11-20T05:43:46;33.67;;;24.13;;
7845;SDS011;3968;51.424;6.788;2022-11-20T05:46:13;30.43;;;23.60;;
7845;SDS011;3968;51.424;6.788;2022-11-20T05:48:41;34.43;;;25.00;;
7845;SDS011;3968;51.424;6.788;2022-11-20T05:51:08;34.23;;;25.40;;
7845;SDS011;3968;51.424;6.788;2022-11-20T05:53:36;32.60;;;25.23;;
7845;SDS011;3968;51.424;6.788;2022-11-20T05:56:03;31.73;;;24.83;;
7845;SDS011;3968;51.424;6.788;2022-11-20T05:58:31;35.07;;;25.80;;
7845;SDS011;3968;51.424;6.788;2022-11-20T06:01:08;33.67;;;24.87;;
7845;SDS011;3968;51.424;6.788;2022-11-20T06:03:37;36.77;;;26.33;;
7845;SDS011;3968;51.424;6.788;2022-11-20T06:06:04;36.37;;;25.73;;
7845;SDS011;3968;51.424;6.788;2022-11-20T06:08:31;36.93;;;25.10;;
7845;SDS011;3968;51.424;6.788;2022-11-20T06:10:57;34.33;;;25.93;;
7845;SDS011;3968;51.424;6.788;2022-11-20T06:13:23;36.07;;;25.73;;
7845;SDS011;3968;51.424;6.788;2022-11-20T06:15:50;34.40;;;26.20;;
7845;SDS011;3968;51.424;6.788;2022-11-20T06:18:16;32.00;;;24.73;;
7845;SDS011;3968;51.424;6.788;2022-11-20T06:20:42;32.60;;;24.63;;
7845;SDS011;3968;51.424;6.788;2022-11-20T06:23:08;33.23;;;24.87;;
7845;SDS011;3968;51.424;6.788;2022-11-20T06:25:36;35.67;;;25.53;;
7845;SDS011;3968;51.424;6.788;2022-11-20T06:28:03;32.50;;;25.37;;
7845;SDS011;3968;51.424;6.788;2022-11-20T06:30:29;30.93;;;25.90;;
7845;SDS011;3968;51.424;6.788;2022-11-20T06:32:54;34.50;;;24.57;;
7845;SDS011;3968;51.424;6.788;2022-11-20T06:35:20;27.20;;;21.53;;
7845;SDS011;3968;51.424;6.788;2022-11-20T06:37:45;30.20;;;21.90;;
7845;SDS011;3968;51.424;6.788;2022-11-20T06:40:11;27.97;;;21.27;;
7845;SDS011;3968;51.424;6.788;2022-11-20T06:42:37;29.73;;;22.90;;
7845;SDS011;3968;51.424;6.788;2022-11-20T06:45:03;31.67;;;23.00;;
7845;SDS011;3968;51.424;6.788;2022-11-20T06:47:28;27.47;;;21.80;;
7845;SDS011;3968;51.424;6.788;2022-11-20T06:49:54;30.37;;;22.77;;
7845;SDS011;3968;51.424;6.788;2022-11-20T06:52:20;30.97;;;21.37;;
7845;SDS011;3968;51.424;6.788;2022-11-20T06:54:45;31.77;;;22.90;;
7845;SDS011;3968;51.424;6.788;2022-11-20T06:57:11;29.53;;;22.57;;
7845;SDS011;3968;51.424;6.788;2022-11-20T06:59:36;32.27;;;24.03;;
7845;SDS011;3968;51.424;6.788;2022-11-20T07:02:02;30.93;;;22.93;;
7845;SDS011;3968;51.424;6.788;2022-11-20T07:04:28;30.10;;;22.87;;
7845;SDS011;3968;51.424;6.788;2022-11-20T07:06:53;30.40;;;21.80;;
7845;SDS011;3968;51.424;6.788;2022-11-20T07:09:19;31.23;;;23.50;;
7845;SDS011;3968;51.424;6.788;2022-11-20T07:11:44;28.47;;;22.57;;
7845;SDS011;3968;51.424;6.788;2022-11-20T07:14:10;29.70;;;22.50;;
7845;SDS011;3968;51.424;6.788;2022-11-20T07:16:35;29.03;;;23.03;;
7845;SDS011;3968;51.424;6.788;2022-11-20T07:19:01;29.73;;;22.30;;
7845;SDS011;3968;51.424;6.788;2022-11-20T07:21:26;31.07;;;22.50;;
7845;SDS011;3968;51.424;6.788;2022-11-20T07:23:52;31.03;;;22.80;;
7845;SDS011;3968;51.424;6.788;2022-11-20T07:26:17;30.50;;;23.40;;
7845;SDS011;3968;51.424;6.788;2022-11-20T07:28:45;30.60;;;21.90;;
7845;SDS011;3968;51.424;6.788;2022-11-20T07:31:10;29.10;;;21.87;;
7845;SDS011;3968;51.424;6.788;2022-11-20T07:33:37;29.83;;;22.60;;
7845;SDS011;3968;51.424;6.788;2022-11-20T07:36:03;30.27;;;22.60;;
7845;SDS011;3968;51.424;6.788;2022-11-20T07:38:29;29.83;;;21.63;;
7845;SDS011;3968;51.424;6.788;2022-11-20T07:40:58;32.60;;;21.60;;
7845;SDS011;3968;51.424;6.788;2022-11-20T07:43:26;33.47;;;22.53;;
7845;SDS011;3968;51.424;6.788;2022-11-20T07:45:54;30.07;;;23.33;;
7845;SDS011;3968;51.424;6.788;2022-11-20T07:48:24;27.70;;;20.63;;
7845;SDS011;3968;51.424;6.788;2022-11-20T07:50:53;31.43;;;21.73;;
7845;SDS011;3968;51.424;6.788;2022-11-20T07:53:19;27.03;;;20.87;;
7845;SDS011;3968;51.424;6.788;2022-11-20T07:55:46;33.23;;;22.33;;
7845;SDS011;3968;51.424;6.788;2022-11-20T07:58:13;26.20;;;20.03;;
7845;SDS011;3968;51.424;6.788;2022-11-20T08:00:39;29.60;;;20.63;;
7845;SDS011;3968;51.424;6.788;2022-11-20T08:03:05;27.87;;;20.90;;
7845;SDS011;3968;51.424;6.788;2022-11-20T08:05:31;31.03;;;21.87;;
7845;SDS011;3968;51.424;6.788;2022-11-20T08:07:57;27.60;;;21.70;;
7845;SDS011;3968;51.424;6.788;2022-11-20T08:10:22;29.37;;;21.47;;
7845;SDS011;3968;51.424;6.788;2022-11-20T08:12:49;27.57;;;20.43;;
7845;SDS011;3968;51.424;6.788;2022-11-20T08:15:34;27.97;;;20.77;;
7845;SDS011;3968;51.424;6.788;2022-11-20T08:18:04;30.33;;;21.87;;
7845;SDS011;3968;51.424;6.788;2022-11-20T08:20:31;30.33;;;20.83;;
7845;SDS011;3968;51.424;6.788;2022-11-20T08:22:58;26.13;;;19.17;;
7845;SDS011;3968;51.424;6.788;2022-11-20T08:25:28;28.63;;;20.23;;
7845;SDS011;3968;51.424;6.788;2022-11-20T08:27:57;32.57;;;22.03;;
7845;SDS011;3968;51.424;6.788;2022-11-20T08:30:27;29.03;;;21.53;;
7845;SDS011;3968;51.424;6.788;2022-11-20T08:32:53;30.93;;;21.63;;
7845;SDS011;3968;51.424;6.788;2022-11-20T08:35:19;28.00;;;20.50;;
7845;SDS011;3968;51.424;6.788;2022-11-20T08:37:49;25.80;;;20.03;;
7845;SDS011;3968;51.424;6.788;2022-11-20T08:40:15;26.23;;;19.80;;
7845;SDS011;3968;51.424;6.788;2022-11-20T08:42:47;25.93;;;19.27;;
7845;SDS011;3968;51.424;6.788;2022-11-20T08:45:14;28.00;;;20.53;;
7845;SDS011;3968;51.424;6.788;2022-11-20T08:47:40;25.13;;;19.47;;
7845;SDS011;3968;51.424;6.788;2022-11-20T08:50:07;28.37;;;19.87;;
7845;SDS011;3968;51.424;6.788;2022-11-20T08:52:33;27.83;;;21.07;;
7845;SDS011;3968;51.424;6.788;2022-11-20T08:54:59;30.27;;;19.90;;
7845;SDS011;3968;51.424;6.788;2022-11-20T08:57:24;27.97;;;20.50;;
7845;SDS011;3968;51.424;6.788;2022-11-20T08:59:50;33.63;;;22.70;;
7845;SDS011;3968;51.424;6.788;2022-11-20T09:02:16;33.23;;;23.63;;
7845;SDS011;3968;51.424;6.788;2022-11-20T09:04:41;32.00;;;24.37;;
7845;SDS011;3968;51.424;6.788;2022-11-20T09:07:07;31.00;;;22.83;;
7845;SDS011;3968;51.424;6.788;2022-11-20T09:09:32;30.50;;;22.63;;
7845;SDS011;3968;51.424;6.788;2022-11-20T09:11:58;29.00;;;21.30;;
7845;SDS011;3968;51.424;6.788;2022-11-20T09:14:24;27.27;;;20.30;;
7845;SDS011;3968;51.424;6.788;2022-11-20T09:16:54;25.17;;;20.20;;
7845;SDS011;3968;51.424;6.788;2022-11-20T09:19:20;26.47;;;19.83;;
7845;SDS011;3968;51.424;6.788;2022-11-20T09:21:46;29.80;;;20.87;;
7845;SDS011;3968;51.424;6.788;2022-11-20T09:24:12;41.40;;;26.10;;
7845;SDS011;3968;51.424;6.788;2022-11-20T09:26:37;30.80;;;22.37;;
7845;SDS011;3968;51.424;6.788;2022-11-20T09:29:03;31.90;;;20.47;;
7845;SDS011;3968;51.424;6.788;2022-11-20T09:31:28;29.23;;;19.87;;
7845;SDS011;3968;51.424;6.788;2022-11-20T09:33:54;26.77;;;19.07;;
7845;SDS011;3968;51.424;6.788;2022-11-20T09:36:20;27.33;;;20.07;;
7845;SDS011;3968;51.424;6.788;2022-11-20T09:38:46;29.40;;;19.80;;
7845;SDS011;3968;51.424;6.788;2022-11-20T09:44:42;25.47;;;18.10;;
7845;SDS011;3968;51.424;6.788;2022-11-20T09:55:29;23.67;;;18.30;;
7845;SDS011;3968;51.424;6.788;2022-11-20T09:57:56;24.57;;;18.67;;
7845;SDS011;3968;51.424;6.788;2022-11-20T10:00:24;24.47;;;18.17;;
7845;SDS011;3968;51.424;6.788;2022-11-20T10:05:39;23.60;;;17.80;;
7845;SDS011;3968;51.424;6.788;2022-11-20T10:08:19;25.73;;;19.00;;
7845;SDS011;3968;51.424;6.788;2022-11-20T10:10:49;26.70;;;18.87;;
7845;SDS011;3968;51.424;6.788;2022-11-20T10:22:00;25.07;;;18.90;;
7845;SDS011;3968;51.424;6.788;2022-11-20T10:24:52;26.60;;;19.80;;
7845;SDS011;3968;51.424;6.788;2022-11-20T10:30:11;28.20;;;19.47;;
7845;SDS011;3968;51.424;6.788;2022-11-20T10:32:40;24.90;;;19.73;;
7845;SDS011;3968;51.424;6.788;2022-11-20T10:35:22;25.83;;;18.93;;
7845;SDS011;3968;51.424;6.788;2022-11-20T10:37:50;27.20;;;20.20;;
7845;SDS011;3968;51.424;6.788;2022-11-20T10:40:28;27.57;;;18.67;;
7845;SDS011;3968;51.424;6.788;2022-11-20T10:45:55;24.43;;;17.93;;
7845;SDS011;3968;51.424;6.788;2022-11-20T10:48:24;24.77;;;17.63;;
7845;SDS011;3968;51.424;6.788;2022-11-20T10:51:01;25.07;;;19.20;;
7845;SDS011;3968;51.424;6.788;2022-11-20T10:56:47;24.20;;;16.93;;
7845;SDS011;3968;51.424;6.788;2022-11-20T11:02:19;21.20;;;16.50;;
7845;SDS011;3968;51.424;6.788;2022-11-20T11:04:48;22.30;;;15.90;;
7845;SDS011;3968;51.424;6.788;2022-11-20T11:07:30;23.70;;;17.07;;
7845;SDS011;3968;51.424;6.788;2022-11-20T11:10:05;24.00;;;17.70;;
7845;SDS011;3968;51.424;6.788;2022-11-20T11:12:46;23.37;;;17.10;;
7845;SDS011;3968;51.424;6.788;2022-11-20T11:15:24;24.00;;;16.33;;
7845;SDS011;3968;51.424;6.788;2022-11-20T11:18:04;21.30;;;15.30;;
7845;SDS011;3968;51.424;6.788;2022-11-20T11:20:33;21.57;;;15.67;;
7845;SDS011;3968;51.424;6.788;2022-11-20T11:22:59;21.60;;;17.10;;
7845;SDS011;3968;51.424;6.788;2022-11-20T11:25:26;23.97;;;16.33;;
7845;SDS011;3968;51.424;6.788;2022-11-20T11:27:53;24.63;;;17.07;;
7845;SDS011;3968;51.424;6.788;2022-11-20T11:30:21;26.13;;;18.87;;
7845;SDS011;3968;51.424;6.788;2022-11-20T11:32:48;25.07;;;18.13;;
7845;SDS011;3968;51.424;6.788;2022-11-20T11:35:27;23.37;;;17.17;;
7845;SDS011;3968;51.424;6.788;2022-11-20T11:37:54;22.40;;;16.43;;
7845;SDS011;3968;51.424;6.788;2022-11-20T11:40:28;22.13;;;16.50;;
7845;SDS011;3968;51.424;6.788;2022-11-20T11:42:58;22.77;;;16.47;;
7845;SDS011;3968;51.424;6.788;2022-11-20T11:45:26;22.63;;;17.47;;
7845;SDS011;3968;51.424;6.788;2022-11-20T11:47:52;22.03;;;16.33;;
7845;SDS011;3968;51.424;6.788;2022-11-20T11:50:24;21.80;;;15.73;;
7845;SDS011;3968;51.424;6.788;2022-11-20T12:04:10;23.60;;;16.37;;
7845;SDS011;3968;51.424;6.788;2022-11-20T12:07:01;24.77;;;17.53;;
7845;SDS011;3968;51.424;6.788;2022-11-20T12:09:37;24.07;;;15.63;;
7845;SDS011;3968;51.424;6.788;2022-11-20T12:12:12;25.23;;;16.93;;
7845;SDS011;3968;51.424;6.788;2022-11-20T12:14:45;25.53;;;16.97;;
7845;SDS011;3968;51.424;6.788;2022-11-20T12:17:14;24.17;;;16.97;;
7845;SDS011;3968;51.424;6.788;2022-11-20T12:19:40;25.53;;;17.60;;
7845;SDS011;3968;51.424;6.788;2022-11-20T12:30:09;25.17;;;18.33;;
7845;SDS011;3968;51.424;6.788;2022-11-20T12:37:51;22.93;;;16.73;;
7845;SDS011;3968;51.424;6.788;2022-11-20T12:40:27;22.60;;;16.20;;
7845;SDS011;3968;51.424;6.788;2022-11-20T12:43:01;23.13;;;16.83;;
7845;SDS011;3968;51.424;6.788;2022-11-20T12:57:00;22.80;;;16.47;;
7845;SDS011;3968;51.424;6.788;2022-11-20T13:07:35;23.90;;;16.77;;
7845;SDS011;3968;51.424;6.788;2022-11-20T13:10:01;21.43;;;16.37;;
7845;SDS011;3968;51.424;6.788;2022-11-20T13:12:31;28.33;;;17.63;;
7845;SDS011;3968;51.424;6.788;2022-11-20T13:17:59;24.10;;;17.33;;
7845;SDS011;3968;51.424;6.788;2022-11-20T13:20:30;21.43;;;16.53;;
7845;SDS011;3968;51.424;6.788;2022-11-20T13:22:58;24.60;;;17.00;;
7845;SDS011;3968;51.424;6.788;2022-11-20T13:27:52;26.47;;;18.00;;
7845;SDS011;3968;51.424;6.788;2022-11-20T13:30:19;23.27;;;17.27;;
7845;SDS011;3968;51.424;6.788;2022-11-20T13:32:56;22.83;;;16.70;;
7845;SDS011;3968;51.424;6.788;2022-11-20T13:35:35;24.43;;;16.87;;
7845;SDS011;3968;51.424;6.788;2022-11-20T13:38:09;24.30;;;16.83;;
7845;SDS011;3968;51.424;6.788;2022-11-20T13:40:50;24.47;;;18.07;;
7845;SDS011;3968;51.424;6.788;2022-11-20T13:46:05;24.07;;;18.43;;
7845;SDS011;3968;51.424;6.788;2022-11-20T13:48:39;25.40;;;18.03;;
7845;SDS011;3968;51.424;6.788;2022-11-20T13:51:15;25.83;;;18.03;;
7845;SDS011;3968;51.424;6.788;2022-11-20T13:54:05;25.67;;;18.03;;
7845;SDS011;3968;51.424;6.788;2022-11-20T13:59:24;27.47;;;18.00;;
7845;SDS011;3968;51.424;6.788;2022-11-20T14:02:25;27.33;;;18.90;;
7845;SDS011;3968;51.424;6.788;2022-11-20T14:04:53;27.80;;;19.17;;
7845;SDS011;3968;51.424;6.788;2022-11-20T14:07:23;26.43;;;18.87;;
7845;SDS011;3968;51.424;6.788;2022-11-20T14:09:55;27.53;;;19.93;;
7845;SDS011;3968;51.424;6.788;2022-11-20T14:12:22;28.43;;;18.43;;
7845;SDS011;3968;51.424;6.788;2022-11-20T14:14:53;26.23;;;18.93;;
7845;SDS011;3968;51.424;6.788;2022-11-20T14:19:59;26.87;;;18.47;;
7845;SDS011;3968;51.424;6.788;2022-11-20T14:22:28;26.87;;;18.90;;
7845;SDS011;3968;51.424;6.788;2022-11-20T14:25:05;29.23;;;18.97;;
7845;SDS011;3968;51.424;6.788;2022-11-20T14:27:44;26.07;;;19.77;;
7845;SDS011;3968;51.424;6.788;2022-11-20T14:30:14;29.77;;;20.87;;
7845;SDS011;3968;51.424;6.788;2022-11-20T14:32:42;30.67;;;20.10;;
7845;SDS011;3968;51.424;6.788;2022-11-20T14:35:13;27.43;;;18.67;;
7845;SDS011;3968;51.424;6.788;2022-11-20T14:37:44;28.80;;;19.53;;
7845;SDS011;3968;51.424;6.788;2022-11-20T14:42:51;28.47;;;19.63;;
7845;SDS011;3968;51.424;6.788;2022-11-20T14:45:16;29.63;;;20.57;;
7845;SDS011;3968;51.424;6.788;2022-11-20T14:47:43;28.47;;;20.03;;
7845;SDS011;3968;51.424;6.788;2022-11-20T14:50:16;31.37;;;21.20;;
7845;SDS011;3968;51.424;6.788;2022-11-20T14:52:51;29.93;;;21.40;;
7845;SDS011;3968;51.424;6.788;2022-11-20T14:55:30;27.43;;;19.67;;
7845;SDS011;3968;51.424;6.788;2022-11-20T14:57:58;29.57;;;21.37;;
7845;SDS011;3968;51.424;6.788;2022-11-20T15:00:28;37.33;;;22.03;;
7845;SDS011;3968;51.424;6.788;2022-11-20T15:02:55;30.40;;;21.40;;
7845;SDS011;3968;51.424;6.788;2022-11-20T15:05:26;29.30;;;20.50;;
7845;SDS011;3968;51.424;6.788;2022-11-20T15:08:11;29.80;;;20.73;;
7845;SDS011;3968;51.424;6.788;2022-11-20T15:10:38;31.50;;;21.27;;
7845;SDS011;3968;51.424;6.788;2022-11-20T15:13:13;33.97;;;22.43;;
7845;SDS011;3968;51.424;6.788;2022-11-20T15:15:49;33.67;;;21.83;;
7845;SDS011;3968;51.424;6.788;2022-11-20T15:18:17;32.80;;;21.67;;
7845;SDS011;3968;51.424;6.788;2022-11-20T15:20:45;31.27;;;21.23;;
7845;SDS011;3968;51.424;6.788;2022-11-20T15:23:12;32.47;;;20.57;;
7845;SDS011;3968;51.424;6.788;2022-11-20T15:25:45;32.30;;;20.93;;
7845;SDS011;3968;51.424;6.788;2022-11-20T15:28:14;32.50;;;22.03;;
7845;SDS011;3968;51.424;6.788;2022-11-20T15:30:45;29.90;;;20.10;;
7845;SDS011;3968;51.424;6.788;2022-11-20T15:33:14;32.20;;;21.97;;
7845;SDS011;3968;51.424;6.788;2022-11-20T15:35:41;34.77;;;22.63;;
7845;SDS011;3968;51.424;6.788;2022-11-20T15:38:07;35.13;;;21.40;;
7845;SDS011;3968;51.424;6.788;2022-11-20T15:40:33;37.80;;;22.27;;
7845;SDS011;3968;51.424;6.788;2022-11-20T15:42:58;33.77;;;21.37;;
7845;SDS011;3968;51.424;6.788;2022-11-20T15:45:37;33.83;;;21.77;;
7845;SDS011;3968;51.424;6.788;2022-11-20T15:48:27;31.93;;;20.87;;
7845;SDS011;3968;51.424;6.788;2022-11-20T15:50:54;31.03;;;21.43;;
7845;SDS011;3968;51.424;6.788;2022-11-20T15:53:39;33.50;;;21.40;;
7845;SDS011;3968;51.424;6.788;2022-11-20T15:56:09;32.77;;;20.97;;
7845;SDS011;3968;51.424;6.788;2022-11-20T15:58:37;33.37;;;22.50;;
7845;SDS011;3968;51.424;6.788;2022-11-20T16:01:03;32.27;;;22.03;;
7845;SDS011;3968;51.424;6.788;2022-11-20T16:03:28;33.47;;;21.77;;
7845;SDS011;3968;51.424;6.788;2022-11-20T16:05:55;32.97;;;21.57;;
7845;SDS011;3968;51.424;6.788;2022-11-20T16:08:23;35.37;;;22.13;;
7845;SDS011;3968;51.424;6.788;2022-11-20T16:10:49;33.63;;;23.40;;
7845;SDS011;3968;51.424;6.788;2022-11-20T16:13:15;34.10;;;22.73;;
7845;SDS011;3968;51.424;6.788;2022-11-20T16:16:01;32.90;;;21.27;;
7845;SDS011;3968;51.424;6.788;2022-11-20T16:18:34;32.97;;;21.77;;
7845;SDS011;3968;51.424;6.788;2022-11-20T16:20:59;37.83;;;22.20;;
7845;SDS011;3968;51.424;6.788;2022-11-20T16:23:26;32.63;;;21.30;;
7845;SDS011;3968;51.424;6.788;2022-11-20T16:25:51;32.10;;;20.63;;
7845;SDS011;3968;51.424;6.788;2022-11-20T16:28:17;34.20;;;20.90;;
7845;SDS011;3968;51.424;6.788;2022-11-20T16:30:43;37.33;;;22.87;;
7845;SDS011;3968;51.424;6.788;2022-11-20T16:33:13;32.37;;;21.60;;
7845;SDS011;3968;51.424;6.788;2022-11-20T16:35:41;33.10;;;22.40;;
7845;SDS011;3968;51.424;6.788;2022-11-20T16:38:07;36.77;;;22.10;;
7845;SDS011;3968;51.424;6.788;2022-11-20T16:40:33;40.60;;;23.47;;
7845;SDS011;3968;51.424;6.788;2022-11-20T16:43:09;34.47;;;21.23;;
7845;SDS011;3968;51.424;6.788;2022-11-20T16:45:41;32.07;;;20.53;;